sensor_id;sensor_type;location;lat;lon;timestamp;pressure;altitude;pressure_sealevel;temperature;humidity
30339;BME280;795;49.296;11.348;2022-09-17T00:01:28;95823.81;;;6.93;100.00
30339;BME280;795;49.296;11.348;2022-09-17T00:03:59;95810.63;;;6.84;100.00
30339;BME280;795;49.296;11.348;2022-09-17T00:06:34;95823.47;;;6.88;100.00
30339;BME280;795;49.296;11.348;2022-09-17T00:09:04;95812.25;;;6.77;100.00
30339;BME280;795;49.296;11.348;2022-09-17T00:11:36;95829.47;;;6.82;100.00
30339;BME280;795;49.296;11.348;2022-09-17T00:14:07;95829.97;;;6.86;100.00
30339;BME280;795;49.296;11.348;2022-09-17T00:16:41;95792.06;;;6.66;100.00
30339;BME280;795;49.296;11.348;2022-09-17T00:19:18;95784.31;;;6.55;100.00
30339;BME280;795;49.296;11.348;2022-09-17T00:21:46;95833.94;;;6.82;100.00
30339;BME280;795;49.296;11.348;2022-09-17T00:24:17;95826.75;;;6.74;100.00
30339;BME280;795;49.296;11.348;2022-09-17T00:26:45;95833.91;;;6.74;100.00
30339;BME280;795;49.296;11.348;2022-09-17T00:29:12;95816.06;;;6.66;100.00
30339;BME280;795;49.296;11.348;2022-09-17T00:31:39;95813.47;;;6.48;100.00
30339;BME280;795;49.296;11.348;2022-09-17T00:34:07;95826.47;;;6.51;100.00
30339;BME280;795;49.296;11.348;2022-09-17T00:36:37;95821.94;;;6.44;100.00
30339;BME280;795;49.296;11.348;2022-09-17T00:39:08;95828.94;;;6.45;100.00
30339;BME280;795;49.296;11.348;2022-09-17T00:41:37;95808.59;;;6.44;100.00
30339;BME280;795;49.296;11.348;2022-09-17T00:44:54;95835.63;;;6.49;100.00
30339;BME280;795;49.296;11.348;2022-09-17T00:47:30;95810.19;;;6.29;100.00
30339;BME280;795;49.296;11.348;2022-09-17T00:50:26;95833.28;;;6.46;100.00
30339;BME280;795;49.296;11.348;2022-09-17T00:53:18;95846.66;;;6.54;100.00
30339;BME280;795;49.296;11.348;2022-09-17T00:56:28;95845.34;;;6.58;100.00
30339;BME280;795;49.296;11.348;2022-09-17T00:58:55;95821.47;;;6.56;100.00
30339;BME280;795;49.296;11.348;2022-09-17T01:01:23;95850.84;;;6.90;100.00
30339;BME280;795;49.296;11.348;2022-09-17T01:03:50;95850.38;;;7.03;100.00
30339;BME280;795;49.296;11.348;2022-09-17T01:06:32;95861.63;;;7.14;100.00
30339;BME280;795;49.296;11.348;2022-09-17T01:09:41;95861.63;;;7.22;100.00
30339;BME280;795;49.296;11.348;2022-09-17T01:13:01;95856.63;;;7.27;100.00
30339;BME280;795;49.296;11.348;2022-09-17T01:15:55;95839.91;;;7.17;100.00
30339;BME280;795;49.296;11.348;2022-09-17T01:21:37;95849.16;;;7.31;100.00
30339;BME280;795;49.296;11.348;2022-09-17T01:30:42;95835.81;;;7.39;100.00
30339;BME280;795;49.296;11.348;2022-09-17T01:34:05;95859.06;;;7.55;100.00
30339;BME280;795;49.296;11.348;2022-09-17T01:37:19;95846.50;;;7.39;100.00
30339;BME280;795;49.296;11.348;2022-09-17T01:43:35;95857.88;;;7.41;100.00
30339;BME280;795;49.296;11.348;2022-09-17T01:46:35;95854.69;;;7.38;100.00
30339;BME280;795;49.296;11.348;2022-09-17T01:49:09;95828.41;;;7.09;100.00
30339;BME280;795;49.296;11.348;2022-09-17T01:51:45;95844.75;;;7.14;100.00
30339;BME280;795;49.296;11.348;2022-09-17T01:54:36;95850.81;;;7.24;100.00
30339;BME280;795;49.296;11.348;2022-09-17T01:57:21;95831.56;;;7.12;100.00
30339;BME280;795;49.296;11.348;2022-09-17T02:02:52;95856.16;;;7.32;100.00
30339;BME280;795;49.296;11.348;2022-09-17T02:08:21;95838.13;;;7.26;100.00
30339;BME280;795;49.296;11.348;2022-09-17T02:11:13;95825.56;;;7.10;100.00
30339;BME280;795;49.296;11.348;2022-09-17T02:14:16;95858.28;;;7.20;100.00
30339;BME280;795;49.296;11.348;2022-09-17T02:16:57;95861.81;;;7.21;100.00
30339;BME280;795;49.296;11.348;2022-09-17T02:19:36;95856.59;;;7.19;100.00
30339;BME280;795;49.296;11.348;2022-09-17T02:25:22;95854.00;;;7.35;100.00
30339;BME280;795;49.296;11.348;2022-09-17T02:28:26;95846.66;;;7.38;100.00
30339;BME280;795;49.296;11.348;2022-09-17T02:30:56;95847.69;;;7.45;100.00
30339;BME280;795;49.296;11.348;2022-09-17T02:33:26;95815.63;;;7.28;100.00
30339;BME280;795;49.296;11.348;2022-09-17T02:35:53;95848.66;;;7.44;100.00
30339;BME280;795;49.296;11.348;2022-09-17T02:38:27;95847.50;;;7.46;100.00
30339;BME280;795;49.296;11.348;2022-09-17T02:42:06;95839.19;;;7.41;100.00
30339;BME280;795;49.296;11.348;2022-09-17T02:52:20;95828.31;;;7.43;100.00
30339;BME280;795;49.296;11.348;2022-09-17T02:55:24;95831.47;;;7.46;100.00
30339;BME280;795;49.296;11.348;2022-09-17T02:58:16;95801.28;;;7.38;100.00
30339;BME280;795;49.296;11.348;2022-09-17T03:00:47;95799.94;;;7.42;100.00
30339;BME280;795;49.296;11.348;2022-09-17T03:03:42;95815.31;;;7.48;100.00
30339;BME280;795;49.296;11.348;2022-09-17T03:06:10;95788.25;;;7.43;100.00
30339;BME280;795;49.296;11.348;2022-09-17T03:08:41;95802.13;;;7.54;100.00
30339;BME280;795;49.296;11.348;2022-09-17T03:11:10;95802.16;;;7.62;100.00
30339;BME280;795;49.296;11.348;2022-09-17T03:13:38;95799.13;;;7.57;100.00
30339;BME280;795;49.296;11.348;2022-09-17T03:16:06;95795.28;;;7.60;100.00
30339;BME280;795;49.296;11.348;2022-09-17T03:18:33;95787.13;;;7.53;100.00
30339;BME280;795;49.296;11.348;2022-09-17T03:21:00;95806.47;;;7.63;100.00
30339;BME280;795;49.296;11.348;2022-09-17T03:23:27;95772.09;;;7.52;100.00
30339;BME280;795;49.296;11.348;2022-09-17T03:25:54;95801.31;;;7.70;100.00
30339;BME280;795;49.296;11.348;2022-09-17T03:28:21;95800.63;;;7.68;100.00
30339;BME280;795;49.296;11.348;2022-09-17T03:30:48;95807.81;;;7.75;100.00
30339;BME280;795;49.296;11.348;2022-09-17T03:33:15;95771.91;;;7.46;100.00
30339;BME280;795;49.296;11.348;2022-09-17T03:35:44;95801.63;;;7.59;100.00
30339;BME280;795;49.296;11.348;2022-09-17T03:38:13;95763.22;;;7.44;100.00
30339;BME280;795;49.296;11.348;2022-09-17T03:40:40;95804.31;;;7.67;100.00
30339;BME280;795;49.296;11.348;2022-09-17T03:43:08;95811.00;;;7.71;100.00
30339;BME280;795;49.296;11.348;2022-09-17T03:45:34;95795.63;;;7.73;100.00
30339;BME280;795;49.296;11.348;2022-09-17T03:48:02;95813.34;;;7.74;100.00
30339;BME280;795;49.296;11.348;2022-09-17T03:50:29;95784.13;;;7.72;100.00
30339;BME280;795;49.296;11.348;2022-09-17T03:52:56;95796.97;;;7.77;100.00
30339;BME280;795;49.296;11.348;2022-09-17T03:55:23;95797.97;;;7.76;100.00
30339;BME280;795;49.296;11.348;2022-09-17T03:57:49;95790.13;;;7.74;100.00
30339;BME280;795;49.296;11.348;2022-09-17T04:00:17;95773.44;;;7.64;100.00
30339;BME280;795;49.296;11.348;2022-09-17T04:02:44;95779.25;;;7.68;100.00
30339;BME280;795;49.296;11.348;2022-09-17T04:05:11;95789.63;;;7.79;100.00
30339;BME280;795;49.296;11.348;2022-09-17T04:07:39;95787.59;;;7.73;100.00
30339;BME280;795;49.296;11.348;2022-09-17T04:10:08;95796.31;;;7.75;100.00
30339;BME280;795;49.296;11.348;2022-09-17T04:12:35;95791.78;;;7.75;100.00
30339;BME280;795;49.296;11.348;2022-09-17T04:15:03;95759.22;;;7.56;100.00
30339;BME280;795;49.296;11.348;2022-09-17T04:17:31;95781.59;;;7.71;100.00
30339;BME280;795;49.296;11.348;2022-09-17T04:19:58;95782.44;;;7.71;100.00
30339;BME280;795;49.296;11.348;2022-09-17T04:22:25;95770.78;;;7.72;100.00
30339;BME280;795;49.296;11.348;2022-09-17T04:24:52;95769.09;;;7.71;100.00
30339;BME280;795;49.296;11.348;2022-09-17T04:27:19;95779.59;;;7.81;100.00
30339;BME280;795;49.296;11.348;2022-09-17T04:29:46;95771.09;;;7.69;100.00
30339;BME280;795;49.296;11.348;2022-09-17T04:32:13;95759.72;;;7.75;100.00
30339;BME280;795;49.296;11.348;2022-09-17T04:34:40;95754.03;;;7.70;100.00
30339;BME280;795;49.296;11.348;2022-09-17T04:37:07;95771.25;;;7.76;100.00
30339;BME280;795;49.296;11.348;2022-09-17T04:39:34;95775.59;;;7.85;100.00
30339;BME280;795;49.296;11.348;2022-09-17T04:42:01;95772.91;;;7.85;100.00
30339;BME280;795;49.296;11.348;2022-09-17T04:44:28;95782.94;;;7.91;100.00
30339;BME280;795;49.296;11.348;2022-09-17T04:46:55;95735.53;;;7.69;100.00
30339;BME280;795;49.296;11.348;2022-09-17T04:49:22;95745.38;;;7.76;100.00
30339;BME280;795;49.296;11.348;2022-09-17T04:51:49;95767.75;;;7.91;100.00
30339;BME280;795;49.296;11.348;2022-09-17T04:54:16;95755.22;;;7.84;100.00
30339;BME280;795;49.296;11.348;2022-09-17T04:56:43;95744.69;;;7.82;100.00
30339;BME280;795;49.296;11.348;2022-09-17T04:59:10;95751.19;;;7.88;100.00
30339;BME280;795;49.296;11.348;2022-09-17T05:01:37;95770.91;;;8.03;100.00
30339;BME280;795;49.296;11.348;2022-09-17T05:04:04;95751.88;;;7.90;100.00
30339;BME280;795;49.296;11.348;2022-09-17T05:06:31;95757.22;;;7.90;100.00
30339;BME280;795;49.296;11.348;2022-09-17T05:08:58;95773.25;;;8.06;100.00
30339;BME280;795;49.296;11.348;2022-09-17T05:11:25;95767.72;;;7.99;100.00
30339;BME280;795;49.296;11.348;2022-09-17T05:13:52;95771.38;;;8.07;100.00
30339;BME280;795;49.296;11.348;2022-09-17T05:16:19;95774.56;;;8.02;100.00
30339;BME280;795;49.296;11.348;2022-09-17T05:18:46;95778.22;;;8.09;100.00
30339;BME280;795;49.296;11.348;2022-09-17T05:21:15;95767.25;;;7.96;100.00
30339;BME280;795;49.296;11.348;2022-09-17T05:23:42;95737.50;;;7.83;100.00
30339;BME280;795;49.296;11.348;2022-09-17T05:26:09;95750.88;;;7.91;100.00
30339;BME280;795;49.296;11.348;2022-09-17T05:28:36;95774.38;;;8.12;100.00
30339;BME280;795;49.296;11.348;2022-09-17T05:31:03;95761.91;;;8.04;100.00
30339;BME280;795;49.296;11.348;2022-09-17T05:33:30;95766.22;;;8.13;100.00
30339;BME280;795;49.296;11.348;2022-09-17T05:35:57;95770.88;;;8.19;100.00
30339;BME280;795;49.296;11.348;2022-09-17T05:38:25;95770.53;;;8.14;100.00
30339;BME280;795;49.296;11.348;2022-09-17T05:40:52;95764.25;;;7.99;100.00
30339;BME280;795;49.296;11.348;2022-09-17T05:43:19;95784.41;;;8.18;100.00
30339;BME280;795;49.296;11.348;2022-09-17T05:45:46;95743.22;;;7.80;100.00
30339;BME280;795;49.296;11.348;2022-09-17T05:48:14;95797.44;;;8.04;100.00
30339;BME280;795;49.296;11.348;2022-09-17T05:50:41;95778.91;;;7.95;100.00
30339;BME280;795;49.296;11.348;2022-09-17T05:53:14;95777.28;;;7.94;100.00
30339;BME280;795;49.296;11.348;2022-09-17T05:55:40;95802.81;;;8.13;100.00
30339;BME280;795;49.296;11.348;2022-09-17T05:58:15;95804.50;;;8.14;100.00
30339;BME280;795;49.296;11.348;2022-09-17T06:00:44;95803.66;;;8.13;100.00
30339;BME280;795;49.296;11.348;2022-09-17T06:03:16;95810.50;;;8.08;100.00
30339;BME280;795;49.296;11.348;2022-09-17T06:05:57;95816.19;;;7.96;100.00
30339;BME280;795;49.296;11.348;2022-09-17T06:08:27;95807.66;;;8.01;100.00
30339;BME280;795;49.296;11.348;2022-09-17T06:10:54;95786.28;;;7.85;100.00
30339;BME280;795;49.296;11.348;2022-09-17T06:13:28;95785.59;;;7.83;100.00
30339;BME280;795;49.296;11.348;2022-09-17T06:15:54;95812.50;;;7.97;100.00
30339;BME280;795;49.296;11.348;2022-09-17T06:18:21;95822.88;;;7.84;100.00
30339;BME280;795;49.296;11.348;2022-09-17T06:21:01;95794.13;;;7.70;100.00
30339;BME280;795;49.296;11.348;2022-09-17T06:23:33;95844.25;;;7.84;100.00
30339;BME280;795;49.296;11.348;2022-09-17T06:26:05;95856.44;;;8.03;100.00
30339;BME280;795;49.296;11.348;2022-09-17T06:28:32;95856.09;;;7.98;100.00
30339;BME280;795;49.296;11.348;2022-09-17T06:31:08;95853.06;;;7.85;100.00
30339;BME280;795;49.296;11.348;2022-09-17T06:33:36;95874.66;;;7.91;100.00
30339;BME280;795;49.296;11.348;2022-09-17T06:36:08;95826.19;;;7.70;100.00
30339;BME280;795;49.296;11.348;2022-09-17T06:38:41;95869.13;;;7.77;100.00
30339;BME280;795;49.296;11.348;2022-09-17T06:41:08;95864.75;;;7.68;100.00
30339;BME280;795;49.296;11.348;2022-09-17T06:43:35;95879.94;;;7.75;100.00
30339;BME280;795;49.296;11.348;2022-09-17T06:46:04;95886.28;;;7.66;100.00
30339;BME280;795;49.296;11.348;2022-09-17T06:48:34;95875.09;;;7.55;100.00
30339;BME280;795;49.296;11.348;2022-09-17T06:51:09;95860.53;;;7.49;100.00
30339;BME280;795;49.296;11.348;2022-09-17T06:53:37;95891.81;;;7.65;100.00
30339;BME280;795;49.296;11.348;2022-09-17T06:56:07;95881.63;;;7.60;100.00
30339;BME280;795;49.296;11.348;2022-09-17T06:58:36;95882.44;;;7.61;100.00
30339;BME280;795;49.296;11.348;2022-09-17T07:01:04;95881.75;;;7.59;100.00
30339;BME280;795;49.296;11.348;2022-09-17T07:03:32;95858.53;;;7.51;100.00
30339;BME280;795;49.296;11.348;2022-09-17T07:05:59;95870.19;;;7.42;100.00
30339;BME280;795;49.296;11.348;2022-09-17T07:08:26;95887.94;;;7.59;100.00
30339;BME280;795;49.296;11.348;2022-09-17T07:10:57;95887.31;;;7.65;100.00
30339;BME280;795;49.296;11.348;2022-09-17T07:13:25;95877.75;;;7.55;100.00
30339;BME280;795;49.296;11.348;2022-09-17T07:16:00;95899.16;;;7.71;100.00
30339;BME280;795;49.296;11.348;2022-09-17T07:18:28;95874.06;;;7.48;100.00
30339;BME280;795;49.296;11.348;2022-09-17T07:21:05;95896.81;;;7.60;100.00
30339;BME280;795;49.296;11.348;2022-09-17T07:23:36;95903.78;;;7.61;100.00
30339;BME280;795;49.296;11.348;2022-09-17T07:26:12;95901.31;;;7.59;100.00
30339;BME280;795;49.296;11.348;2022-09-17T07:28:41;95903.44;;;7.56;100.00
30339;BME280;795;49.296;11.348;2022-09-17T07:31:11;95891.06;;;7.39;100.00
30339;BME280;795;49.296;11.348;2022-09-17T07:33:43;95920.81;;;7.52;100.00
30339;BME280;795;49.296;11.348;2022-09-17T07:36:15;95910.78;;;7.54;100.00
30339;BME280;795;49.296;11.348;2022-09-17T07:38:44;95896.41;;;7.47;100.00
30339;BME280;795;49.296;11.348;2022-09-17T07:41:15;95892.09;;;7.46;100.00
30339;BME280;795;49.296;11.348;2022-09-17T07:43:43;95903.31;;;7.57;100.00
30339;BME280;795;49.296;11.348;2022-09-17T07:46:19;95887.41;;;7.48;100.00
30339;BME280;795;49.296;11.348;2022-09-17T07:48:48;95888.59;;;7.45;100.00
30339;BME280;795;49.296;11.348;2022-09-17T07:51:25;95917.84;;;7.63;100.00
30339;BME280;795;49.296;11.348;2022-09-17T07:53:58;95926.53;;;7.73;100.00
30339;BME280;795;49.296;11.348;2022-09-17T07:56:27;95912.19;;;7.74;100.00
30339;BME280;795;49.296;11.348;2022-09-17T07:58:55;95922.03;;;7.73;100.00
30339;BME280;795;49.296;11.348;2022-09-17T08:03:59;95921.84;;;7.67;100.00
30339;BME280;795;49.296;11.348;2022-09-17T08:06:26;95905.31;;;7.63;100.00
30339;BME280;795;49.296;11.348;2022-09-17T08:08:56;95925.56;;;7.82;100.00
30339;BME280;795;49.296;11.348;2022-09-17T08:11:27;95934.94;;;7.94;100.00
30339;BME280;795;49.296;11.348;2022-09-17T08:14:14;95925.94;;;7.87;100.00
30339;BME280;795;49.296;11.348;2022-09-17T08:16:42;95922.38;;;7.78;100.00
30339;BME280;795;49.296;11.348;2022-09-17T08:19:11;95942.78;;;7.87;100.00
30339;BME280;795;49.296;11.348;2022-09-17T08:21:38;95941.59;;;7.90;100.00
30339;BME280;795;49.296;11.348;2022-09-17T08:24:05;95923.22;;;7.79;100.00
30339;BME280;795;49.296;11.348;2022-09-17T08:26:32;95940.28;;;7.86;100.00
30339;BME280;795;49.296;11.348;2022-09-17T08:28:59;95952.78;;;7.85;100.00
30339;BME280;795;49.296;11.348;2022-09-17T08:31:27;95958.34;;;7.92;100.00
30339;BME280;795;49.296;11.348;2022-09-17T08:33:56;95944.63;;;7.87;100.00
30339;BME280;795;49.296;11.348;2022-09-17T08:36:23;95940.28;;;7.86;100.00
30339;BME280;795;49.296;11.348;2022-09-17T08:38:54;95939.59;;;7.84;100.00
30339;BME280;795;49.296;11.348;2022-09-17T08:42:07;95960.69;;;8.03;100.00
30339;BME280;795;49.296;11.348;2022-09-17T08:44:46;95963.38;;;8.03;100.00
30339;BME280;795;49.296;11.348;2022-09-17T08:47:36;95954.81;;;7.99;100.00
30339;BME280;795;49.296;11.348;2022-09-17T08:53:29;95963.38;;;8.11;100.00
30339;BME280;795;49.296;11.348;2022-09-17T08:56:15;95961.03;;;8.08;100.00
30339;BME280;795;49.296;11.348;2022-09-17T08:59:14;95965.03;;;8.12;100.00
30339;BME280;795;49.296;11.348;2022-09-17T09:05:16;95964.91;;;8.14;100.00
30339;BME280;795;49.296;11.348;2022-09-17T09:08:02;95933.44;;;7.99;100.00
30339;BME280;795;49.296;11.348;2022-09-17T09:11:03;95977.09;;;8.16;100.00
30339;BME280;795;49.296;11.348;2022-09-17T09:13:46;95960.38;;;8.06;100.00
30339;BME280;795;49.296;11.348;2022-09-17T09:16:32;95938.63;;;7.93;100.00
30339;BME280;795;49.296;11.348;2022-09-17T09:21:53;95977.13;;;8.32;100.00
30339;BME280;795;49.296;11.348;2022-09-17T09:24:38;95974.13;;;8.27;100.00
30339;BME280;795;49.296;11.348;2022-09-17T09:27:27;95977.31;;;8.39;100.00
30339;BME280;795;49.296;11.348;2022-09-17T09:30:15;95946.84;;;8.24;100.00
30339;BME280;795;49.296;11.348;2022-09-17T09:33:06;95972.13;;;8.45;100.00
30339;BME280;795;49.296;11.348;2022-09-17T09:35:41;95977.81;;;8.50;100.00
30339;BME280;795;49.296;11.348;2022-09-17T09:38:34;95963.94;;;8.47;100.00
30339;BME280;795;49.296;11.348;2022-09-17T09:41:43;95972.94;;;8.94;100.00
30339;BME280;795;49.296;11.348;2022-09-17T09:44:16;95918.28;;;8.73;100.00
30339;BME280;795;49.296;11.348;2022-09-17T09:47:00;95960.66;;;9.32;100.00
30339;BME280;795;49.296;11.348;2022-09-17T09:49:58;95915.63;;;9.66;100.00
30339;BME280;795;49.296;11.348;2022-09-17T09:53:05;95954.97;;;10.58;100.00
30339;BME280;795;49.296;11.348;2022-09-17T09:58:40;95958.34;;;11.85;100.00
30339;BME280;795;49.296;11.348;2022-09-17T10:01:18;95962.13;;;12.05;100.00
30339;BME280;795;49.296;11.348;2022-09-17T10:03:51;95912.09;;;11.02;100.00
30339;BME280;795;49.296;11.348;2022-09-17T10:06:20;95960.28;;;11.18;100.00
30339;BME280;795;49.296;11.348;2022-09-17T10:11:30;95945.88;;;10.96;100.00
30339;BME280;795;49.296;11.348;2022-09-17T10:14:25;95966.19;;;10.76;100.00
30339;BME280;795;49.296;11.348;2022-09-17T10:17:26;95957.75;;;10.64;100.00
30339;BME280;795;49.296;11.348;2022-09-17T10:22:38;95959.09;;;10.83;100.00
30339;BME280;795;49.296;11.348;2022-09-17T10:25:29;95954.03;;;11.03;100.00
30339;BME280;795;49.296;11.348;2022-09-17T10:28:03;95974.41;;;11.12;100.00
30339;BME280;795;49.296;11.348;2022-09-17T10:30:31;95934.34;;;11.25;100.00
30339;BME280;795;49.296;11.348;2022-09-17T10:33:22;95974.00;;;11.38;100.00
30339;BME280;795;49.296;11.348;2022-09-17T10:36:14;95965.06;;;12.10;100.00
30339;BME280;795;49.296;11.348;2022-09-17T10:38:44;95987.31;;;12.76;100.00
30339;BME280;795;49.296;11.348;2022-09-17T10:41:18;95980.88;;;13.19;100.00
30339;BME280;795;49.296;11.348;2022-09-17T10:43:49;95971.63;;;13.28;100.00
30339;BME280;795;49.296;11.348;2022-09-17T10:46:29;95975.50;;;12.77;100.00
30339;BME280;795;49.296;11.348;2022-09-17T10:49:40;95968.31;;;12.84;100.00
30339;BME280;795;49.296;11.348;2022-09-17T10:55:21;95962.69;;;12.79;100.00
30339;BME280;795;49.296;11.348;2022-09-17T11:01:01;95957.50;;;12.35;100.00
30339;BME280;795;49.296;11.348;2022-09-17T11:07:04;95960.97;;;14.29;96.15
30339;BME280;795;49.296;11.348;2022-09-17T11:10:12;95954.81;;;13.54;98.59
30339;BME280;795;49.296;11.348;2022-09-17T11:16:10;95952.75;;;12.37;100.00
30339;BME280;795;49.296;11.348;2022-09-17T11:19:13;95925.94;;;12.50;100.00
30339;BME280;795;49.296;11.348;2022-09-17T11:21:56;95942.94;;;12.50;100.00
30339;BME280;795;49.296;11.348;2022-09-17T11:25:05;95928.97;;;11.25;100.00
30339;BME280;795;49.296;11.348;2022-09-17T11:28:09;95950.03;;;10.84;100.00
30339;BME280;795;49.296;11.348;2022-09-17T11:34:46;95944.72;;;12.86;100.00
30339;BME280;795;49.296;11.348;2022-09-17T11:37:26;95895.28;;;13.55;95.67
30339;BME280;795;49.296;11.348;2022-09-17T11:40:25;95923.28;;;15.08;83.05
30339;BME280;795;49.296;11.348;2022-09-17T11:43:11;95923.09;;;15.03;83.31
30339;BME280;795;49.296;11.348;2022-09-17T11:46:02;95919.91;;;15.71;77.45
30339;BME280;795;49.296;11.348;2022-09-17T11:52:16;95918.94;;;17.10;68.96
30339;BME280;795;49.296;11.348;2022-09-17T11:55:16;95908.44;;;17.63;65.54
30339;BME280;795;49.296;11.348;2022-09-17T11:57:49;95921.28;;;18.47;62.26
30339;BME280;795;49.296;11.348;2022-09-17T12:00:20;95922.09;;;18.77;57.81
30339;BME280;795;49.296;11.348;2022-09-17T12:03:17;95901.53;;;17.85;57.34
30339;BME280;795;49.296;11.348;2022-09-17T12:05:56;95921.44;;;17.79;59.03
30339;BME280;795;49.296;11.348;2022-09-17T12:12:05;95928.91;;;14.87;68.61
30339;BME280;795;49.296;11.348;2022-09-17T12:14:50;95896.31;;;14.15;74.44
30339;BME280;795;49.296;11.348;2022-09-17T12:17:32;95910.31;;;13.37;80.75
30339;BME280;795;49.296;11.348;2022-09-17T12:22:49;95889.41;;;12.41;100.00
30339;BME280;795;49.296;11.348;2022-09-17T12:25:17;95906.09;;;13.62;100.00
30339;BME280;795;49.296;11.348;2022-09-17T12:28:40;95906.25;;;15.01;93.50
30339;BME280;795;49.296;11.348;2022-09-17T12:32:03;95854.06;;;16.84;74.60
30339;BME280;795;49.296;11.348;2022-09-17T12:38:47;95892.56;;;13.55;84.45
30339;BME280;795;49.296;11.348;2022-09-17T12:45:09;95890.31;;;14.13;80.89
30339;BME280;795;49.296;11.348;2022-09-17T12:48:38;95888.97;;;13.89;81.40
30339;BME280;795;49.296;11.348;2022-09-17T13:01:05;95890.84;;;11.51;96.27
30339;BME280;795;49.296;11.348;2022-09-17T13:17:45;95840.00;;;11.85;100.00
30339;BME280;795;49.296;11.348;2022-09-17T13:21:12;95818.03;;;12.24;98.06
30339;BME280;795;49.296;11.348;2022-09-17T13:23:47;95859.22;;;12.67;97.53
30339;BME280;795;49.296;11.348;2022-09-17T13:26:21;95827.34;;;12.00;96.16
30339;BME280;795;49.296;11.348;2022-09-17T13:28:58;95848.31;;;11.54;100.00
30339;BME280;795;49.296;11.348;2022-09-17T13:36:53;95830.75;;;11.22;100.00
30339;BME280;795;49.296;11.348;2022-09-17T13:39:44;95872.31;;;11.56;100.00
30339;BME280;795;49.296;11.348;2022-09-17T13:42:29;95871.25;;;11.86;100.00
30339;BME280;795;49.296;11.348;2022-09-17T13:45:14;95876.56;;;12.15;100.00
30339;BME280;795;49.296;11.348;2022-09-17T13:48:08;95831.28;;;12.46;100.00
30339;BME280;795;49.296;11.348;2022-09-17T13:50:43;95872.06;;;12.99;97.58
30339;BME280;795;49.296;11.348;2022-09-17T13:55:57;95874.44;;;13.08;92.22
30339;BME280;795;49.296;11.348;2022-09-17T13:58:33;95851.78;;;12.69;93.98
30339;BME280;795;49.296;11.348;2022-09-17T14:01:06;95887.81;;;12.46;95.77
30339;BME280;795;49.296;11.348;2022-09-17T14:13:55;95930.31;;;8.20;100.00
30339;BME280;795;49.296;11.348;2022-09-17T14:22:24;95918.25;;;8.00;100.00
30339;BME280;795;49.296;11.348;2022-09-17T14:24:54;95905.72;;;8.25;100.00
30339;BME280;795;49.296;11.348;2022-09-17T14:27:56;95912.72;;;8.90;100.00
30339;BME280;795;49.296;11.348;2022-09-17T14:30:32;95923.19;;;9.63;100.00
30339;BME280;795;49.296;11.348;2022-09-17T14:35:48;95911.47;;;9.25;100.00
30339;BME280;795;49.296;11.348;2022-09-17T14:38:43;95908.78;;;9.25;100.00
30339;BME280;795;49.296;11.348;2022-09-17T14:47:03;95901.72;;;12.71;100.00
30339;BME280;795;49.296;11.348;2022-09-17T14:49:36;95903.09;;;13.84;100.00
30339;BME280;795;49.296;11.348;2022-09-17T14:52:29;95911.09;;;14.25;92.63
30339;BME280;795;49.296;11.348;2022-09-17T14:55:22;95910.97;;;13.86;90.95
30339;BME280;795;49.296;11.348;2022-09-17T14:57:55;95913.50;;;13.19;94.36
30339;BME280;795;49.296;11.348;2022-09-17T15:00:29;95907.19;;;11.99;100.00
30339;BME280;795;49.296;11.348;2022-09-17T15:02:58;95915.44;;;11.18;100.00
30339;BME280;795;49.296;11.348;2022-09-17T15:05:47;95920.66;;;10.23;100.00
30339;BME280;795;49.296;11.348;2022-09-17T15:08:22;95907.88;;;9.71;100.00
30339;BME280;795;49.296;11.348;2022-09-17T15:11:02;95921.88;;;10.80;100.00
30339;BME280;795;49.296;11.348;2022-09-17T15:13:35;95907.44;;;12.61;100.00
30339;BME280;795;49.296;11.348;2022-09-17T15:16:28;95894.63;;;13.94;100.00
30339;BME280;795;49.296;11.348;2022-09-17T15:19:02;95886.88;;;15.23;93.20
30339;BME280;795;49.296;11.348;2022-09-17T15:21:38;95878.94;;;15.61;87.98
30339;BME280;795;49.296;11.348;2022-09-17T15:27:43;95855.44;;;16.00;80.85
30339;BME280;795;49.296;11.348;2022-09-17T15:30:21;95875.78;;;16.15;79.83
30339;BME280;795;49.296;11.348;2022-09-17T15:32:56;95898.19;;;16.29;78.42
30339;BME280;795;49.296;11.348;2022-09-17T15:35:31;95889.25;;;16.28;79.24
30339;BME280;795;49.296;11.348;2022-09-17T15:38:00;95892.38;;;15.74;80.08
30339;BME280;795;49.296;11.348;2022-09-17T15:40:50;95901.84;;;16.10;80.51
30339;BME280;795;49.296;11.348;2022-09-17T15:43:31;95902.91;;;16.46;79.11
30339;BME280;795;49.296;11.348;2022-09-17T15:46:25;95894.16;;;15.49;80.33
30339;BME280;795;49.296;11.348;2022-09-17T15:48:57;95907.06;;;14.95;83.49
30339;BME280;795;49.296;11.348;2022-09-17T15:51:32;95910.28;;;14.25;88.56
30339;BME280;795;49.296;11.348;2022-09-17T15:54:04;95903.25;;;13.36;94.62
30339;BME280;795;49.296;11.348;2022-09-17T15:56:40;95907.91;;;12.72;100.00
30339;BME280;795;49.296;11.348;2022-09-17T15:59:43;95905.13;;;12.58;100.00
30339;BME280;795;49.296;11.348;2022-09-17T16:02:28;95905.91;;;13.63;97.71
30339;BME280;795;49.296;11.348;2022-09-17T16:07:51;95893.34;;;15.09;86.71
30339;BME280;795;49.296;11.348;2022-09-17T16:10:18;95902.38;;;14.30;90.96
30339;BME280;795;49.296;11.348;2022-09-17T16:12:48;95893.59;;;13.54;96.29
30339;BME280;795;49.296;11.348;2022-09-17T16:15:15;95896.13;;;12.73;100.00
30339;BME280;795;49.296;11.348;2022-09-17T16:17:47;95899.50;;;12.32;100.00
30339;BME280;795;49.296;11.348;2022-09-17T16:20:24;95901.84;;;12.63;100.00
30339;BME280;795;49.296;11.348;2022-09-17T16:22:52;95903.84;;;12.12;100.00
30339;BME280;795;49.296;11.348;2022-09-17T16:25:27;95872.31;;;11.56;100.00
30339;BME280;795;49.296;11.348;2022-09-17T16:28:02;95906.59;;;12.19;100.00
30339;BME280;795;49.296;11.348;2022-09-17T16:30:29;95907.84;;;12.37;100.00